sensor_id;sensor_type;location;lat;lon;timestamp;P1;durP1;ratioP1;P2;durP2;ratioP2
53646;SDS011;39550;52.230;5.194;2023-03-31T00:00:16;14.30;;;4.40;;
53646;SDS011;39550;52.230;5.194;2023-03-31T00:02:42;7.78;;;3.30;;
53646;SDS011;39550;52.230;5.194;2023-03-31T00:05:08;10.82;;;4.65;;
53646;SDS011;39550;52.230;5.194;2023-03-31T00:07:34;11.38;;;3.83;;
53646;SDS011;39550;52.230;5.194;2023-03-31T00:10:02;13.30;;;4.38;;
53646;SDS011;39550;52.230;5.194;2023-03-31T00:12:29;13.00;;;4.32;;
53646;SDS011;39550;52.230;5.194;2023-03-31T00:14:55;9.23;;;4.32;;
53646;SDS011;39550;52.230;5.194;2023-03-31T00:17:20;11.50;;;4.20;;
53646;SDS011;39550;52.230;5.194;2023-03-31T00:19:45;13.02;;;4.57;;
53646;SDS011;39550;52.230;5.194;2023-03-31T00:22:13;10.68;;;3.95;;
53646;SDS011;39550;52.230;5.194;2023-03-31T00:24:42;12.90;;;4.22;;
53646;SDS011;39550;52.230;5.194;2023-03-31T00:27:08;11.32;;;4.68;;
53646;SDS011;39550;52.230;5.194;2023-03-31T00:29:35;10.00;;;4.05;;
53646;SDS011;39550;52.230;5.194;2023-03-31T00:32:01;10.23;;;3.95;;
53646;SDS011;39550;52.230;5.194;2023-03-31T00:34:26;7.95;;;3.83;;
53646;SDS011;39550;52.230;5.194;2023-03-31T00:36:52;13.18;;;4.25;;
53646;SDS011;39550;52.230;5.194;2023-03-31T00:39:20;7.32;;;3.50;;
53646;SDS011;39550;52.230;5.194;2023-03-31T00:41:47;13.38;;;4.15;;
53646;SDS011;39550;52.230;5.194;2023-03-31T00:44:14;10.32;;;3.63;;
53646;SDS011;39550;52.230;5.194;2023-03-31T00:49:27;9.25;;;3.92;;
53646;SDS011;39550;52.230;5.194;2023-03-31T00:54:48;8.57;;;3.50;;
53646;SDS011;39550;52.230;5.194;2023-03-31T00:57:17;10.27;;;4.03;;
53646;SDS011;39550;52.230;5.194;2023-03-31T00:59:51;11.48;;;4.40;;
53646;SDS011;39550;52.230;5.194;2023-03-31T01:02:20;13.30;;;4.28;;
53646;SDS011;39550;52.230;5.194;2023-03-31T01:04:50;12.02;;;4.30;;
53646;SDS011;39550;52.230;5.194;2023-03-31T01:07:22;9.65;;;3.53;;
53646;SDS011;39550;52.230;5.194;2023-03-31T01:09:56;12.68;;;4.75;;
53646;SDS011;39550;52.230;5.194;2023-03-31T01:32:03;10.90;;;3.90;;
53646;SDS011;39550;52.230;5.194;2023-03-31T01:42:47;12.30;;;3.88;;
53646;SDS011;39550;52.230;5.194;2023-03-31T01:48:20;8.68;;;3.60;;
53646;SDS011;39550;52.230;5.194;2023-03-31T01:50:57;9.88;;;3.42;;
53646;SDS011;39550;52.230;5.194;2023-03-31T01:53:30;6.85;;;3.35;;
53646;SDS011;39550;52.230;5.194;2023-03-31T01:58:54;8.30;;;3.45;;
53646;SDS011;39550;52.230;5.194;2023-03-31T02:01:30;9.00;;;3.88;;
53646;SDS011;39550;52.230;5.194;2023-03-31T02:06:55;9.43;;;3.88;;
53646;SDS011;39550;52.230;5.194;2023-03-31T02:09:27;10.27;;;3.38;;
53646;SDS011;39550;52.230;5.194;2023-03-31T02:11:56;9.85;;;3.60;;
53646;SDS011;39550;52.230;5.194;2023-03-31T02:14:24;9.15;;;3.55;;
53646;SDS011;39550;52.230;5.194;2023-03-31T02:16:56;8.80;;;3.58;;
53646;SDS011;39550;52.230;5.194;2023-03-31T02:19:24;8.48;;;4.13;;
53646;SDS011;39550;52.230;5.194;2023-03-31T02:21:53;6.75;;;3.20;;
53646;SDS011;39550;52.230;5.194;2023-03-31T02:24:20;8.02;;;3.72;;
53646;SDS011;39550;52.230;5.194;2023-03-31T02:29:47;8.75;;;3.45;;
53646;SDS011;39550;52.230;5.194;2023-03-31T02:32:15;12.20;;;3.90;;
53646;SDS011;39550;52.230;5.194;2023-03-31T02:34:57;8.52;;;3.50;;
53646;SDS011;39550;52.230;5.194;2023-03-31T02:37:24;7.43;;;3.63;;
53646;SDS011;39550;52.230;5.194;2023-03-31T02:39:51;6.80;;;3.35;;
53646;SDS011;39550;52.230;5.194;2023-03-31T02:42:19;9.23;;;3.58;;
53646;SDS011;39550;52.230;5.194;2023-03-31T02:44:45;9.45;;;4.32;;
53646;SDS011;39550;52.230;5.194;2023-03-31T02:47:12;6.93;;;3.35;;
53646;SDS011;39550;52.230;5.194;2023-03-31T02:49:40;9.50;;;3.47;;
53646;SDS011;39550;52.230;5.194;2023-03-31T02:58:05;7.35;;;3.50;;
53646;SDS011;39550;52.230;5.194;2023-03-31T03:06:14;7.82;;;3.40;;
53646;SDS011;39550;52.230;5.194;2023-03-31T03:11:26;9.18;;;4.32;;
53646;SDS011;39550;52.230;5.194;2023-03-31T03:14:14;7.97;;;3.75;;
53646;SDS011;39550;52.230;5.194;2023-03-31T03:16:49;8.15;;;4.00;;
53646;SDS011;39550;52.230;5.194;2023-03-31T03:19:21;7.07;;;3.75;;
53646;SDS011;39550;52.230;5.194;2023-03-31T03:21:47;9.02;;;3.80;;
53646;SDS011;39550;52.230;5.194;2023-03-31T03:24:17;8.77;;;3.75;;
53646;SDS011;39550;52.230;5.194;2023-03-31T03:26:43;9.38;;;3.60;;
53646;SDS011;39550;52.230;5.194;2023-03-31T03:29:09;8.35;;;3.88;;
53646;SDS011;39550;52.230;5.194;2023-03-31T03:31:39;8.65;;;4.25;;
53646;SDS011;39550;52.230;5.194;2023-03-31T03:34:07;8.35;;;3.92;;
53646;SDS011;39550;52.230;5.194;2023-03-31T03:36:33;7.93;;;4.43;;
53646;SDS011;39550;52.230;5.194;2023-03-31T03:39:00;7.72;;;3.50;;
53646;SDS011;39550;52.230;5.194;2023-03-31T03:41:26;8.77;;;4.28;;
53646;SDS011;39550;52.230;5.194;2023-03-31T03:43:51;8.05;;;3.60;;
53646;SDS011;39550;52.230;5.194;2023-03-31T03:46:16;7.45;;;3.53;;
53646;SDS011;39550;52.230;5.194;2023-03-31T03:48:41;6.97;;;3.85;;
53646;SDS011;39550;52.230;5.194;2023-03-31T03:51:07;8.93;;;4.03;;
53646;SDS011;39550;52.230;5.194;2023-03-31T03:53:32;7.22;;;3.70;;
53646;SDS011;39550;52.230;5.194;2023-03-31T03:55:57;9.07;;;3.95;;
53646;SDS011;39550;52.230;5.194;2023-03-31T03:58:23;9.63;;;3.45;;
53646;SDS011;39550;52.230;5.194;2023-03-31T04:00:48;7.97;;;3.47;;
53646;SDS011;39550;52.230;5.194;2023-03-31T04:03:14;9.38;;;3.33;;
53646;SDS011;39550;52.230;5.194;2023-03-31T04:05:40;7.95;;;3.80;;
53646;SDS011;39550;52.230;5.194;2023-03-31T04:08:05;10.25;;;3.83;;
53646;SDS011;39550;52.230;5.194;2023-03-31T04:10:32;7.28;;;3.63;;
53646;SDS011;39550;52.230;5.194;2023-03-31T04:12:58;9.23;;;3.70;;
53646;SDS011;39550;52.230;5.194;2023-03-31T04:15:24;9.82;;;3.85;;
53646;SDS011;39550;52.230;5.194;2023-03-31T04:17:49;7.03;;;3.42;;
53646;SDS011;39550;52.230;5.194;2023-03-31T04:20:15;9.55;;;4.18;;
53646;SDS011;39550;52.230;5.194;2023-03-31T04:22:41;8.20;;;3.53;;
53646;SDS011;39550;52.230;5.194;2023-03-31T04:25:11;7.95;;;3.85;;
53646;SDS011;39550;52.230;5.194;2023-03-31T04:27:43;9.43;;;3.97;;
53646;SDS011;39550;52.230;5.194;2023-03-31T04:30:19;6.32;;;3.20;;
53646;SDS011;39550;52.230;5.194;2023-03-31T04:32:55;8.70;;;3.65;;
53646;SDS011;39550;52.230;5.194;2023-03-31T04:35:22;7.20;;;3.28;;
53646;SDS011;39550;52.230;5.194;2023-03-31T04:37:50;7.10;;;3.58;;
53646;SDS011;39550;52.230;5.194;2023-03-31T04:40:22;9.80;;;3.45;;
53646;SDS011;39550;52.230;5.194;2023-03-31T04:42:48;6.70;;;3.55;;
53646;SDS011;39550;52.230;5.194;2023-03-31T04:45:14;10.18;;;3.78;;
53646;SDS011;39550;52.230;5.194;2023-03-31T04:47:39;9.30;;;3.67;;
53646;SDS011;39550;52.230;5.194;2023-03-31T04:50:05;7.78;;;3.33;;
53646;SDS011;39550;52.230;5.194;2023-03-31T04:52:31;7.65;;;3.50;;
53646;SDS011;39550;52.230;5.194;2023-03-31T04:54:56;6.97;;;3.13;;
53646;SDS011;39550;52.230;5.194;2023-03-31T04:57:21;6.68;;;3.10;;
53646;SDS011;39550;52.230;5.194;2023-03-31T04:59:46;7.60;;;3.63;;
53646;SDS011;39550;52.230;5.194;2023-03-31T05:02:12;6.38;;;3.40;;
53646;SDS011;39550;52.230;5.194;2023-03-31T05:04:37;5.72;;;2.78;;
53646;SDS011;39550;52.230;5.194;2023-03-31T05:07:02;6.45;;;3.20;;
53646;SDS011;39550;52.230;5.194;2023-03-31T05:09:29;8.43;;;3.80;;
53646;SDS011;39550;52.230;5.194;2023-03-31T05:11:55;7.75;;;3.03;;
53646;SDS011;39550;52.230;5.194;2023-03-31T05:14:21;6.43;;;3.42;;
53646;SDS011;39550;52.230;5.194;2023-03-31T05:16:46;13.75;;;3.80;;
53646;SDS011;39550;52.230;5.194;2023-03-31T05:19:11;5.88;;;2.97;;
53646;SDS011;39550;52.230;5.194;2023-03-31T05:21:37;6.30;;;3.03;;
53646;SDS011;39550;52.230;5.194;2023-03-31T05:24:02;6.63;;;2.63;;
53646;SDS011;39550;52.230;5.194;2023-03-31T05:26:28;6.60;;;3.20;;
53646;SDS011;39550;52.230;5.194;2023-03-31T05:28:54;7.05;;;3.45;;
53646;SDS011;39550;52.230;5.194;2023-03-31T05:31:19;5.90;;;2.92;;
53646;SDS011;39550;52.230;5.194;2023-03-31T05:33:45;8.48;;;3.65;;
53646;SDS011;39550;52.230;5.194;2023-03-31T05:36:11;7.95;;;3.35;;
53646;SDS011;39550;52.230;5.194;2023-03-31T05:38:39;7.00;;;3.20;;
53646;SDS011;39550;52.230;5.194;2023-03-31T05:41:05;5.45;;;3.33;;
53646;SDS011;39550;52.230;5.194;2023-03-31T05:43:33;6.85;;;3.15;;
53646;SDS011;39550;52.230;5.194;2023-03-31T05:45:58;5.57;;;2.85;;
53646;SDS011;39550;52.230;5.194;2023-03-31T05:48:24;7.32;;;3.38;;
53646;SDS011;39550;52.230;5.194;2023-03-31T05:50:49;8.48;;;3.00;;
53646;SDS011;39550;52.230;5.194;2023-03-31T05:53:14;7.53;;;3.25;;
53646;SDS011;39550;52.230;5.194;2023-03-31T05:55:40;7.47;;;3.28;;
53646;SDS011;39550;52.230;5.194;2023-03-31T05:58:05;6.55;;;3.05;;
53646;SDS011;39550;52.230;5.194;2023-03-31T06:00:31;7.47;;;3.00;;
53646;SDS011;39550;52.230;5.194;2023-03-31T06:02:57;7.07;;;4.10;;
53646;SDS011;39550;52.230;5.194;2023-03-31T06:05:23;6.93;;;3.38;;
53646;SDS011;39550;52.230;5.194;2023-03-31T06:07:50;5.93;;;3.67;;
53646;SDS011;39550;52.230;5.194;2023-03-31T06:10:17;7.35;;;3.30;;
53646;SDS011;39550;52.230;5.194;2023-03-31T06:12:42;6.43;;;3.17;;
53646;SDS011;39550;52.230;5.194;2023-03-31T06:15:08;8.23;;;2.80;;
53646;SDS011;39550;52.230;5.194;2023-03-31T06:17:33;7.47;;;3.20;;
53646;SDS011;39550;52.230;5.194;2023-03-31T06:19:59;8.10;;;3.00;;
53646;SDS011;39550;52.230;5.194;2023-03-31T06:22:24;6.35;;;3.20;;
53646;SDS011;39550;52.230;5.194;2023-03-31T06:24:49;12.55;;;3.70;;
53646;SDS011;39550;52.230;5.194;2023-03-31T06:27:15;7.38;;;3.30;;
53646;SDS011;39550;52.230;5.194;2023-03-31T06:29:40;8.68;;;3.38;;
53646;SDS011;39550;52.230;5.194;2023-03-31T06:32:06;7.38;;;2.80;;
53646;SDS011;39550;52.230;5.194;2023-03-31T06:34:31;7.18;;;3.42;;
53646;SDS011;39550;52.230;5.194;2023-03-31T06:36:56;11.05;;;3.78;;
53646;SDS011;39550;52.230;5.194;2023-03-31T06:39:21;6.22;;;2.63;;
53646;SDS011;39550;52.230;5.194;2023-03-31T06:41:47;5.57;;;2.65;;
53646;SDS011;39550;52.230;5.194;2023-03-31T06:44:12;6.05;;;3.15;;
53646;SDS011;39550;52.230;5.194;2023-03-31T06:46:40;7.00;;;3.47;;
53646;SDS011;39550;52.230;5.194;2023-03-31T06:49:06;5.43;;;2.80;;
53646;SDS011;39550;52.230;5.194;2023-03-31T06:51:31;6.15;;;3.10;;
53646;SDS011;39550;52.230;5.194;2023-03-31T06:53:56;5.45;;;2.67;;
53646;SDS011;39550;52.230;5.194;2023-03-31T06:56:22;8.45;;;2.80;;
53646;SDS011;39550;52.230;5.194;2023-03-31T06:58:47;6.78;;;2.67;;
53646;SDS011;39550;52.230;5.194;2023-03-31T07:01:12;5.05;;;2.55;;
53646;SDS011;39550;52.230;5.194;2023-03-31T07:03:38;4.47;;;2.55;;
53646;SDS011;39550;52.230;5.194;2023-03-31T07:06:03;6.85;;;2.50;;
53646;SDS011;39550;52.230;5.194;2023-03-31T07:08:28;5.90;;;2.85;;
53646;SDS011;39550;52.230;5.194;2023-03-31T07:10:55;6.30;;;2.55;;
53646;SDS011;39550;52.230;5.194;2023-03-31T07:13:21;5.05;;;2.55;;
53646;SDS011;39550;52.230;5.194;2023-03-31T07:15:47;9.73;;;3.30;;
53646;SDS011;39550;52.230;5.194;2023-03-31T07:18:13;7.90;;;3.08;;
53646;SDS011;39550;52.230;5.194;2023-03-31T07:20:39;6.53;;;2.75;;
53646;SDS011;39550;52.230;5.194;2023-03-31T07:23:05;7.38;;;2.55;;
53646;SDS011;39550;52.230;5.194;2023-03-31T07:25:32;7.57;;;2.95;;
53646;SDS011;39550;52.230;5.194;2023-03-31T07:27:57;8.38;;;2.83;;
53646;SDS011;39550;52.230;5.194;2023-03-31T07:30:23;6.25;;;2.70;;
53646;SDS011;39550;52.230;5.194;2023-03-31T07:32:49;8.57;;;2.80;;
53646;SDS011;39550;52.230;5.194;2023-03-31T07:35:16;5.43;;;2.70;;
53646;SDS011;39550;52.230;5.194;2023-03-31T07:37:42;5.53;;;2.75;;
53646;SDS011;39550;52.230;5.194;2023-03-31T07:40:11;7.82;;;2.78;;
53646;SDS011;39550;52.230;5.194;2023-03-31T07:42:42;6.28;;;2.80;;
53646;SDS011;39550;52.230;5.194;2023-03-31T07:45:07;6.28;;;3.10;;
53646;SDS011;39550;52.230;5.194;2023-03-31T07:47:33;8.40;;;3.33;;
53646;SDS011;39550;52.230;5.194;2023-03-31T07:49:59;5.57;;;2.88;;
53646;SDS011;39550;52.230;5.194;2023-03-31T07:52:24;6.72;;;2.53;;
53646;SDS011;39550;52.230;5.194;2023-03-31T07:54:50;5.40;;;2.50;;
53646;SDS011;39550;52.230;5.194;2023-03-31T07:57:15;6.30;;;2.38;;
53646;SDS011;39550;52.230;5.194;2023-03-31T07:59:43;5.57;;;2.90;;
53646;SDS011;39550;52.230;5.194;2023-03-31T08:02:10;4.72;;;2.60;;
53646;SDS011;39550;52.230;5.194;2023-03-31T08:04:37;7.55;;;2.92;;
53646;SDS011;39550;52.230;5.194;2023-03-31T08:07:06;5.72;;;2.50;;
53646;SDS011;39550;52.230;5.194;2023-03-31T08:09:31;4.63;;;2.47;;
53646;SDS011;39550;52.230;5.194;2023-03-31T08:11:57;4.72;;;2.53;;
53646;SDS011;39550;52.230;5.194;2023-03-31T08:14:22;4.97;;;2.47;;
53646;SDS011;39550;52.230;5.194;2023-03-31T08:16:47;5.32;;;2.67;;
53646;SDS011;39550;52.230;5.194;2023-03-31T08:19:13;7.22;;;3.20;;
53646;SDS011;39550;52.230;5.194;2023-03-31T08:21:38;8.25;;;2.83;;
53646;SDS011;39550;52.230;5.194;2023-03-31T08:24:03;4.85;;;2.38;;
53646;SDS011;39550;52.230;5.194;2023-03-31T08:26:30;7.10;;;2.67;;
53646;SDS011;39550;52.230;5.194;2023-03-31T08:28:56;6.13;;;2.70;;
53646;SDS011;39550;52.230;5.194;2023-03-31T08:31:23;6.68;;;3.13;;
53646;SDS011;39550;52.230;5.194;2023-03-31T08:33:48;7.07;;;2.60;;
53646;SDS011;39550;52.230;5.194;2023-03-31T08:36:14;6.07;;;2.78;;
53646;SDS011;39550;52.230;5.194;2023-03-31T08:38:40;5.05;;;2.47;;
53646;SDS011;39550;52.230;5.194;2023-03-31T08:41:09;6.82;;;3.15;;
53646;SDS011;39550;52.230;5.194;2023-03-31T08:43:59;7.07;;;2.72;;
53646;SDS011;39550;52.230;5.194;2023-03-31T08:46:28;5.68;;;3.30;;
53646;SDS011;39550;52.230;5.194;2023-03-31T08:48:58;6.97;;;3.63;;
53646;SDS011;39550;52.230;5.194;2023-03-31T08:51:28;5.03;;;2.47;;
53646;SDS011;39550;52.230;5.194;2023-03-31T08:54:04;6.35;;;3.03;;
53646;SDS011;39550;52.230;5.194;2023-03-31T08:56:37;4.07;;;2.40;;
53646;SDS011;39550;52.230;5.194;2023-03-31T08:59:12;6.18;;;2.47;;
53646;SDS011;39550;52.230;5.194;2023-03-31T09:01:48;8.82;;;3.30;;
53646;SDS011;39550;52.230;5.194;2023-03-31T09:12:19;7.40;;;3.10;;
53646;SDS011;39550;52.230;5.194;2023-03-31T09:15:09;5.55;;;2.80;;
53646;SDS011;39550;52.230;5.194;2023-03-31T09:17:45;6.13;;;2.75;;
53646;SDS011;39550;52.230;5.194;2023-03-31T09:20:16;7.20;;;2.88;;
53646;SDS011;39550;52.230;5.194;2023-03-31T09:22:47;6.15;;;2.88;;
53646;SDS011;39550;52.230;5.194;2023-03-31T09:25:20;5.57;;;2.92;;
53646;SDS011;39550;52.230;5.194;2023-03-31T09:27:51;4.28;;;2.50;;
53646;SDS011;39550;52.230;5.194;2023-03-31T09:30:26;7.95;;;3.00;;
53646;SDS011;39550;52.230;5.194;2023-03-31T09:35:40;9.63;;;3.28;;
53646;SDS011;39550;52.230;5.194;2023-03-31T09:38:08;7.38;;;3.17;;
53646;SDS011;39550;52.230;5.194;2023-03-31T09:40:35;6.07;;;3.08;;
53646;SDS011;39550;52.230;5.194;2023-03-31T09:43:05;6.40;;;3.40;;
53646;SDS011;39550;52.230;5.194;2023-03-31T09:45:32;8.68;;;3.70;;
53646;SDS011;39550;52.230;5.194;2023-03-31T09:48:06;7.35;;;3.40;;
53646;SDS011;39550;52.230;5.194;2023-03-31T09:50:42;6.68;;;3.50;;
53646;SDS011;39550;52.230;5.194;2023-03-31T09:53:17;11.85;;;4.22;;
53646;SDS011;39550;52.230;5.194;2023-03-31T09:55:51;6.32;;;3.00;;
53646;SDS011;39550;52.230;5.194;2023-03-31T09:58:18;8.82;;;4.38;;
53646;SDS011;39550;52.230;5.194;2023-03-31T10:03:26;11.02;;;3.42;;
53646;SDS011;39550;52.230;5.194;2023-03-31T10:05:54;7.28;;;3.95;;
53646;SDS011;39550;52.230;5.194;2023-03-31T10:11:17;10.20;;;3.40;;
53646;SDS011;39550;52.230;5.194;2023-03-31T10:13:44;12.65;;;4.35;;
53646;SDS011;39550;52.230;5.194;2023-03-31T10:18:39;8.40;;;3.72;;
53646;SDS011;39550;52.230;5.194;2023-03-31T10:21:26;10.98;;;4.15;;
53646;SDS011;39550;52.230;5.194;2023-03-31T10:23:59;10.10;;;4.05;;
53646;SDS011;39550;52.230;5.194;2023-03-31T10:26:26;8.50;;;3.85;;
53646;SDS011;39550;52.230;5.194;2023-03-31T10:28:53;8.63;;;3.90;;
53646;SDS011;39550;52.230;5.194;2023-03-31T10:31:19;11.68;;;4.45;;
53646;SDS011;39550;52.230;5.194;2023-03-31T10:33:49;12.77;;;4.35;;
53646;SDS011;39550;52.230;5.194;2023-03-31T10:38:45;12.25;;;4.22;;
53646;SDS011;39550;52.230;5.194;2023-03-31T10:41:16;11.55;;;4.18;;
53646;SDS011;39550;52.230;5.194;2023-03-31T10:43:48;14.77;;;4.75;;
53646;SDS011;39550;52.230;5.194;2023-03-31T10:46:15;12.75;;;5.15;;
53646;SDS011;39550;52.230;5.194;2023-03-31T10:48:41;10.35;;;4.38;;
53646;SDS011;39550;52.230;5.194;2023-03-31T10:51:18;7.72;;;3.83;;
53646;SDS011;39550;52.230;5.194;2023-03-31T11:07:03;10.35;;;4.10;;
53646;SDS011;39550;52.230;5.194;2023-03-31T11:12:26;9.57;;;4.20;;
53646;SDS011;39550;52.230;5.194;2023-03-31T11:20:26;10.13;;;4.30;;
53646;SDS011;39550;52.230;5.194;2023-03-31T11:26:13;8.88;;;3.80;;
53646;SDS011;39550;52.230;5.194;2023-03-31T11:36:21;9.23;;;4.38;;
53646;SDS011;39550;52.230;5.194;2023-03-31T11:41:36;10.98;;;4.93;;
53646;SDS011;39550;52.230;5.194;2023-03-31T11:44:08;9.43;;;4.22;;
53646;SDS011;39550;52.230;5.194;2023-03-31T11:46:50;12.13;;;4.65;;
53646;SDS011;39550;52.230;5.194;2023-03-31T11:49:26;11.43;;;4.25;;
53646;SDS011;39550;52.230;5.194;2023-03-31T11:54:40;15.25;;;4.63;;
53646;SDS011;39550;52.230;5.194;2023-03-31T11:57:32;10.52;;;4.60;;
53646;SDS011;39550;52.230;5.194;2023-03-31T12:05:12;11.82;;;4.30;;
53646;SDS011;39550;52.230;5.194;2023-03-31T12:07:51;10.68;;;4.20;;
53646;SDS011;39550;52.230;5.194;2023-03-31T12:18:28;8.85;;;3.50;;
53646;SDS011;39550;52.230;5.194;2023-03-31T12:21:00;9.50;;;4.03;;
53646;SDS011;39550;52.230;5.194;2023-03-31T12:23:29;10.45;;;3.70;;
53646;SDS011;39550;52.230;5.194;2023-03-31T12:31:55;12.18;;;4.15;;
53646;SDS011;39550;52.230;5.194;2023-03-31T12:34:23;9.65;;;3.22;;
53646;SDS011;39550;52.230;5.194;2023-03-31T12:45:28;9.10;;;3.50;;
53646;SDS011;39550;52.230;5.194;2023-03-31T12:51:38;7.60;;;3.50;;
53646;SDS011;39550;52.230;5.194;2023-03-31T12:57:01;6.10;;;2.95;;
53646;SDS011;39550;52.230;5.194;2023-03-31T13:04:34;8.70;;;3.50;;
53646;SDS011;39550;52.230;5.194;2023-03-31T13:07:04;7.50;;;3.50;;
53646;SDS011;39550;52.230;5.194;2023-03-31T13:09:40;10.77;;;3.20;;
53646;SDS011;39550;52.230;5.194;2023-03-31T13:12:15;8.77;;;3.95;;
53646;SDS011;39550;52.230;5.194;2023-03-31T13:14:44;8.35;;;3.53;;
53646;SDS011;39550;52.230;5.194;2023-03-31T13:25:47;6.72;;;3.70;;
53646;SDS011;39550;52.230;5.194;2023-03-31T13:28:23;8.45;;;3.30;;
53646;SDS011;39550;52.230;5.194;2023-03-31T13:30:55;7.32;;;3.22;;
53646;SDS011;39550;52.230;5.194;2023-03-31T13:39:00;6.40;;;3.08;;
53646;SDS011;39550;52.230;5.194;2023-03-31T13:50:22;7.32;;;3.38;;
53646;SDS011;39550;52.230;5.194;2023-03-31T13:55:49;8.10;;;3.08;;
53646;SDS011;39550;52.230;5.194;2023-03-31T14:06:58;8.88;;;3.67;;
53646;SDS011;39550;52.230;5.194;2023-03-31T14:09:32;8.30;;;3.67;;
53646;SDS011;39550;52.230;5.194;2023-03-31T14:12:00;7.13;;;3.35;;
53646;SDS011;39550;52.230;5.194;2023-03-31T14:14:42;8.52;;;3.63;;
53646;SDS011;39550;52.230;5.194;2023-03-31T14:17:07;7.30;;;2.95;;
53646;SDS011;39550;52.230;5.194;2023-03-31T14:30:35;9.18;;;3.58;;
53646;SDS011;39550;52.230;5.194;2023-03-31T14:36:01;8.32;;;3.25;;
53646;SDS011;39550;52.230;5.194;2023-03-31T14:38:50;9.10;;;3.63;;
53646;SDS011;39550;52.230;5.194;2023-03-31T14:41:17;7.35;;;3.47;;
53646;SDS011;39550;52.230;5.194;2023-03-31T14:43:46;6.32;;;3.25;;
53646;SDS011;39550;52.230;5.194;2023-03-31T14:46:18;7.20;;;3.20;;
53646;SDS011;39550;52.230;5.194;2023-03-31T14:48:45;8.07;;;3.60;;
53646;SDS011;39550;52.230;5.194;2023-03-31T14:51:13;7.95;;;3.20;;
53646;SDS011;39550;52.230;5.194;2023-03-31T14:53:40;7.10;;;3.17;;
53646;SDS011;39550;52.230;5.194;2023-03-31T14:56:20;6.70;;;3.53;;
53646;SDS011;39550;52.230;5.194;2023-03-31T14:58:50;5.72;;;2.90;;
53646;SDS011;39550;52.230;5.194;2023-03-31T15:01:24;8.63;;;3.45;;
53646;SDS011;39550;52.230;5.194;2023-03-31T15:03:58;7.10;;;3.00;;
53646;SDS011;39550;52.230;5.194;2023-03-31T15:06:24;9.00;;;3.58;;
53646;SDS011;39550;52.230;5.194;2023-03-31T15:08:51;6.40;;;3.08;;
53646;SDS011;39550;52.230;5.194;2023-03-31T15:11:21;8.77;;;3.55;;
53646;SDS011;39550;52.230;5.194;2023-03-31T15:13:47;7.40;;;3.50;;
53646;SDS011;39550;52.230;5.194;2023-03-31T15:16:56;8.70;;;3.35;;
53646;SDS011;39550;52.230;5.194;2023-03-31T15:21:43;5.78;;;3.10;;
53646;SDS011;39550;52.230;5.194;2023-03-31T15:24:10;7.85;;;2.95;;
53646;SDS011;39550;52.230;5.194;2023-03-31T15:26:38;5.80;;;3.40;;
53646;SDS011;39550;52.230;5.194;2023-03-31T15:31:50;7.22;;;3.08;;
53646;SDS011;39550;52.230;5.194;2023-03-31T15:34:26;5.78;;;3.28;;
53646;SDS011;39550;52.230;5.194;2023-03-31T15:36:57;6.38;;;3.28;;
53646;SDS011;39550;52.230;5.194;2023-03-31T15:39:23;6.07;;;3.22;;
53646;SDS011;39550;52.230;5.194;2023-03-31T15:41:51;6.18;;;2.97;;
53646;SDS011;39550;52.230;5.194;2023-03-31T15:47:07;6.75;;;3.10;;
53646;SDS011;39550;52.230;5.194;2023-03-31T15:49:51;5.80;;;3.15;;
53646;SDS011;39550;52.230;5.194;2023-03-31T15:52:28;8.63;;;3.28;;
53646;SDS011;39550;52.230;5.194;2023-03-31T15:57:29;6.45;;;2.90;;
53646;SDS011;39550;52.230;5.194;2023-03-31T15:59:58;5.53;;;3.05;;
53646;SDS011;39550;52.230;5.194;2023-03-31T16:02:25;6.15;;;3.08;;
53646;SDS011;39550;52.230;5.194;2023-03-31T16:04:59;7.57;;;2.90;;
53646;SDS011;39550;52.230;5.194;2023-03-31T16:07:27;5.75;;;2.80;;
53646;SDS011;39550;52.230;5.194;2023-03-31T16:12:34;6.60;;;2.90;;
53646;SDS011;39550;52.230;5.194;2023-03-31T16:15:11;6.55;;;3.35;;
53646;SDS011;39550;52.230;5.194;2023-03-31T16:20:15;6.70;;;2.67;;
53646;SDS011;39550;52.230;5.194;2023-03-31T16:22:44;5.53;;;3.25;;
53646;SDS011;39550;52.230;5.194;2023-03-31T16:25:15;4.53;;;2.90;;
53646;SDS011;39550;52.230;5.194;2023-03-31T16:27:44;7.27;;;3.20;;
53646;SDS011;39550;52.230;5.194;2023-03-31T16:30:12;5.93;;;3.40;;
53646;SDS011;39550;52.230;5.194;2023-03-31T16:35:40;7.97;;;3.47;;
53646;SDS011;39550;52.230;5.194;2023-03-31T16:38:07;5.32;;;2.80;;
53646;SDS011;39550;52.230;5.194;2023-03-31T16:40:35;5.20;;;3.22;;
53646;SDS011;39550;52.230;5.194;2023-03-31T16:45:32;6.30;;;3.50;;
53646;SDS011;39550;52.230;5.194;2023-03-31T16:47:57;6.03;;;2.85;;
53646;SDS011;39550;52.230;5.194;2023-03-31T16:50:22;5.22;;;2.78;;
53646;SDS011;39550;52.230;5.194;2023-03-31T16:52:48;4.88;;;3.20;;
53646;SDS011;39550;52.230;5.194;2023-03-31T16:55:13;4.95;;;2.90;;
53646;SDS011;39550;52.230;5.194;2023-03-31T16:57:39;6.65;;;3.10;;
53646;SDS011;39550;52.230;5.194;2023-03-31T17:00:05;5.85;;;2.90;;
53646;SDS011;39550;52.230;5.194;2023-03-31T17:02:31;5.70;;;2.92;;
53646;SDS011;39550;52.230;5.194;2023-03-31T17:04:56;5.57;;;2.97;;
53646;SDS011;39550;52.230;5.194;2023-03-31T17:07:22;7.15;;;2.90;;
53646;SDS011;39550;52.230;5.194;2023-03-31T17:09:47;5.47;;;3.28;;
53646;SDS011;39550;52.230;5.194;2023-03-31T17:12:12;5.03;;;2.95;;
53646;SDS011;39550;52.230;5.194;2023-03-31T17:14:38;7.38;;;3.55;;
53646;SDS011;39550;52.230;5.194;2023-03-31T17:17:03;6.35;;;2.67;;
53646;SDS011;39550;52.230;5.194;2023-03-31T17:19:29;5.78;;;3.13;;
53646;SDS011;39550;52.230;5.194;2023-03-31T17:21:54;5.35;;;3.30;;
53646;SDS011;39550;52.230;5.194;2023-03-31T17:24:19;4.82;;;3.00;;
53646;SDS011;39550;52.230;5.194;2023-03-31T17:26:46;5.03;;;2.95;;
53646;SDS011;39550;52.230;5.194;2023-03-31T17:29:11;5.80;;;2.90;;
53646;SDS011;39550;52.230;5.194;2023-03-31T17:31:37;5.40;;;3.15;;
53646;SDS011;39550;52.230;5.194;2023-03-31T17:34:02;4.15;;;2.70;;
53646;SDS011;39550;52.230;5.194;2023-03-31T17:36:27;5.80;;;3.13;;
53646;SDS011;39550;52.230;5.194;2023-03-31T17:38:53;5.28;;;2.95;;
53646;SDS011;39550;52.230;5.194;2023-03-31T17:41:19;6.15;;;3.25;;
53646;SDS011;39550;52.230;5.194;2023-03-31T17:43:45;5.70;;;3.30;;
53646;SDS011;39550;52.230;5.194;2023-03-31T17:46:12;6.45;;;3.30;;
53646;SDS011;39550;52.230;5.194;2023-03-31T17:58:51;4.82;;;3.10;;
53646;SDS011;39550;52.230;5.194;2023-03-31T18:01:17;6.18;;;3.47;;
53646;SDS011;39550;52.230;5.194;2023-03-31T18:03:43;5.15;;;3.20;;
53646;SDS011;39550;52.230;5.194;2023-03-31T18:06:10;5.25;;;3.80;;
53646;SDS011;39550;52.230;5.194;2023-03-31T18:08:37;5.57;;;3.22;;
53646;SDS011;39550;52.230;5.194;2023-03-31T18:11:04;4.95;;;3.00;;
53646;SDS011;39550;52.230;5.194;2023-03-31T18:13:32;5.40;;;3.47;;
53646;SDS011;39550;52.230;5.194;2023-03-31T18:15:58;5.68;;;3.40;;
53646;SDS011;39550;52.230;5.194;2023-03-31T18:18:24;5.38;;;3.28;;
53646;SDS011;39550;52.230;5.194;2023-03-31T18:20:52;5.57;;;3.38;;
53646;SDS011;39550;52.230;5.194;2023-03-31T18:23:17;4.85;;;2.95;;
53646;SDS011;39550;52.230;5.194;2023-03-31T18:25:43;5.35;;;3.40;;
53646;SDS011;39550;52.230;5.194;2023-03-31T18:28:10;4.90;;;3.42;;
53646;SDS011;39550;52.230;5.194;2023-03-31T18:30:36;4.90;;;3.58;;
53646;SDS011;39550;52.230;5.194;2023-03-31T18:33:02;6.38;;;3.17;;
53646;SDS011;39550;52.230;5.194;2023-03-31T18:35:27;5.32;;;3.67;;
53646;SDS011;39550;52.230;5.194;2023-03-31T18:37:53;5.43;;;3.30;;
53646;SDS011;39550;52.230;5.194;2023-03-31T18:40:18;6.13;;;3.53;;
53646;SDS011;39550;52.230;5.194;2023-03-31T18:42:43;4.68;;;3.53;;
53646;SDS011;39550;52.230;5.194;2023-03-31T18:45:09;4.65;;;3.33;;
53646;SDS011;39550;52.230;5.194;2023-03-31T18:47:35;5.75;;;3.40;;
53646;SDS011;39550;52.230;5.194;2023-03-31T18:50:00;5.30;;;3.30;;